Time;durP1;ratioP1;P1;durP2;ratioP2;P2;SDS_P1;SDS_P2;PMS_P1;PMS_P2;Temp;Humidity;BMP_temperature;BMP_pressure;BME280_temperature;BME280_humidity;BME280_pressure;Samples;Min_cycle;Max_cycle;Signal;HPM_P1;HPM_P2
2023/12/30 00:01:45;;;;;;;6.00;1.73;;;;;;;18.32;71.81;100930.38;5081659;28;20024;-39
2023/12/30 00:04:10;;;;;;;3.92;1.60;;;;;;;18.32;72.03;100929.53;5076336;28;20085;-39
2023/12/30 00:06:36;;;;;;;7.30;1.73;;;;;;;18.29;71.72;100933.66;5076300;28;20106;-39
2023/12/30 00:09:01;;;;;;;6.70;1.80;;;;;;;18.29;71.99;100941.88;5087243;28;20035;-39
2023/12/30 00:11:27;;;;;;;6.18;1.88;;;;;;;18.27;71.57;100941.31;5073743;28;20044;-38
2023/12/30 00:13:52;;;;;;;5.75;1.90;;;;;;;18.26;71.15;100932.28;5081241;28;20364;-39
2023/12/30 00:16:17;;;;;;;3.25;1.80;;;;;;;18.24;71.42;100933.66;5080655;28;20046;-38
2023/12/30 00:18:43;;;;;;;5.07;1.77;;;;;;;18.22;71.26;100933.94;5082973;28;20213;-38
2023/12/30 00:21:08;;;;;;;5.45;1.65;;;;;;;18.21;71.47;100932.31;5082000;28;20028;-39
2023/12/30 00:23:35;;;;;;;5.15;1.60;;;;;;;18.21;71.66;100934.19;5083716;28;20434;-39
2023/12/30 00:26:00;;;;;;;7.00;1.85;;;;;;;18.19;71.63;100939.16;5080164;28;20489;-39
2023/12/30 00:28:26;;;;;;;7.05;1.60;;;;;;;18.18;71.62;100926.53;5084849;28;20020;-38
2023/12/30 00:30:51;;;;;;;6.35;2.22;;;;;;;18.18;71.22;100929.28;5082762;28;20391;-38
2023/12/30 00:33:17;;;;;;;4.07;1.60;;;;;;;18.16;71.35;100935.06;5082772;28;20081;-38
2023/12/30 00:35:43;;;;;;;4.40;1.40;;;;;;;18.15;71.25;100930.66;5080967;28;20032;-38
2023/12/30 00:38:08;;;;;;;5.78;1.70;;;;;;;18.14;70.97;100941.91;5084403;28;20479;-38
2023/12/30 00:40:33;;;;;;;5.05;1.90;;;;;;;18.12;70.98;100943.00;5079348;28;20103;-37
2023/12/30 00:42:59;;;;;;;6.93;1.52;;;;;;;18.12;71.14;100947.66;5089903;28;20123;-36
2023/12/30 00:45:24;;;;;;;6.47;1.80;;;;;;;18.10;71.16;100955.34;5084263;28;20476;-38
2023/12/30 00:47:49;;;;;;;6.15;1.92;;;;;;;18.08;70.88;100950.13;5084099;28;20115;-36
2023/12/30 00:50:15;;;;;;;4.65;1.52;;;;;;;18.07;70.95;100959.44;5081227;28;20480;-38
2023/12/30 00:52:41;;;;;;;5.72;1.50;;;;;;;18.07;71.15;100961.38;5080412;28;20495;-37
2023/12/30 00:55:06;;;;;;;8.35;1.60;;;;;;;18.06;71.66;100956.97;5080579;28;20029;-37
2023/12/30 00:57:32;;;;;;;6.78;1.88;;;;;;;18.04;70.99;100968.22;5091343;28;20037;-37
2023/12/30 00:59:57;;;;;;;5.30;1.67;;;;;;;18.03;71.05;100963.03;5084468;28;20043;-38
2023/12/30 01:02:23;;;;;;;11.20;1.90;;;;;;;18.01;71.55;100963.28;5081482;28;20183;-37
2023/12/30 01:04:48;;;;;;;3.92;1.70;;;;;;;18.01;71.27;100962.47;5078990;28;20381;-38
2023/12/30 01:07:13;;;;;;;3.85;1.75;;;;;;;18.00;71.05;100964.41;5085445;28;20028;-38
2023/12/30 01:09:39;;;;;;;4.60;1.73;;;;;;;18.00;71.02;100963.56;5076926;28;20542;-38
2023/12/30 01:12:05;;;;;;;5.35;1.70;;;;;;;17.99;71.37;100964.66;5082810;28;20040;-38
2023/12/30 01:14:30;;;;;;;6.40;1.73;;;;;;;17.98;71.07;100966.59;5082025;28;20024;-39
2023/12/30 01:16:55;;;;;;;5.05;1.60;;;;;;;17.97;71.10;100973.16;5079818;28;20481;-38
2023/12/30 01:19:21;;;;;;;6.47;1.85;;;;;;;17.96;71.16;100968.78;5086622;28;20208;-38
2023/12/30 01:21:46;;;;;;;3.90;1.85;;;;;;;17.95;71.22;100975.34;5084000;28;20335;-38
2023/12/30 01:24:12;;;;;;;7.35;1.83;;;;;;;17.94;70.46;100970.94;5078972;28;20481;-38
2023/12/30 01:26:38;;;;;;;7.78;1.98;;;;;;;17.94;71.04;100976.44;5081604;28;20027;-37
2023/12/30 01:29:04;;;;;;;10.15;2.28;;;;;;;17.93;70.60;100980.28;5076759;28;20103;-36
2023/12/30 01:31:29;;;;;;;8.02;1.73;;;;;;;17.93;70.77;100983.00;5079402;28;20119;-36
2023/12/30 01:33:54;;;;;;;6.53;1.73;;;;;;;17.92;70.78;100990.41;5078435;28;20054;-37
2023/12/30 01:36:20;;;;;;;5.07;1.90;;;;;;;17.91;70.36;100988.75;5081044;28;20036;-37
2023/12/30 01:38:45;;;;;;;6.47;2.25;;;;;;;17.91;70.92;100986.00;5084409;28;20019;-37
2023/12/30 01:41:11;;;;;;;8.82;1.75;;;;;;;17.90;70.52;100994.50;5081107;28;20032;-37
2023/12/30 01:43:37;;;;;;;6.28;2.00;;;;;;;17.89;70.79;100995.59;5082004;28;20020;-37
2023/12/30 01:46:09;;;;;;;6.65;1.63;;;;;;;17.89;70.68;101001.94;5081305;28;20023;-36
2023/12/30 01:48:35;;;;;;;8.88;1.77;;;;;;;17.88;70.91;101003.03;5080056;28;20032;-38
2023/12/30 01:51:01;;;;;;;10.52;1.92;;;;;;;17.88;70.83;101002.19;5081547;28;20374;-38
2023/12/30 01:53:27;;;;;;;5.68;1.70;;;;;;;17.86;70.96;101005.19;5086669;28;20028;-38
2023/12/30 01:55:53;;;;;;;6.05;1.77;;;;;;;17.87;70.88;101008.78;5080564;28;20024;-37
2023/12/30 01:58:20;;;;;;;5.82;1.80;;;;;;;17.87;70.69;101015.06;5081444;28;20028;-37
2023/12/30 02:00:48;;;;;;;7.07;1.73;;;;;;;17.88;70.18;101011.25;5086236;28;20424;-37
2023/12/30 02:03:15;;;;;;;4.93;1.80;;;;;;;17.89;70.57;101020.28;5078165;28;20107;-39
2023/12/30 02:05:40;;;;;;;5.93;1.80;;;;;;;17.90;69.98;101021.94;5080794;28;20357;-38
2023/12/30 02:08:05;;;;;;;4.03;1.40;;;;;;;17.91;70.36;101023.59;5088416;28;20023;-38
2023/12/30 02:10:31;;;;;;;5.47;1.75;;;;;;;17.91;69.88;101020.84;5078792;28;20024;-38
2023/12/30 02:12:56;;;;;;;3.95;1.40;;;;;;;17.90;69.89;101031.00;5080595;28;20245;-38
2023/12/30 02:15:22;;;;;;;6.07;1.73;;;;;;;17.90;70.09;101025.50;5081483;28;20780;-39
2023/12/30 02:17:51;;;;;;;7.70;1.60;;;;;;;17.91;70.27;101020.84;5086480;28;20085;-38
2023/12/30 02:20:17;;;;;;;4.53;1.88;;;;;;;17.91;69.90;101020.84;5081822;27;20579;-38
2023/12/30 02:22:44;;;;;;;4.47;1.70;;;;;;;17.90;70.13;101024.69;5082446;28;20015;-38
2023/12/30 02:25:10;;;;;;;5.32;1.98;;;;;;;17.91;70.06;101023.59;5080336;28;20027;-38
2023/12/30 02:27:35;;;;;;;6.70;2.00;;;;;;;17.89;70.14;101031.25;5087776;28;20391;-38
2023/12/30 02:30:00;;;;;;;6.95;1.80;;;;;;;17.90;69.67;101043.88;5079658;28;20101;-38
2023/12/30 02:32:26;;;;;;;3.35;1.52;;;;;;;17.89;69.68;101036.72;5080116;28;20066;-39
2023/12/30 02:34:51;;;;;;;6.78;1.73;;;;;;;17.88;69.61;101043.31;5079064;28;20055;-39
2023/12/30 02:37:16;;;;;;;5.38;1.77;;;;;;;17.87;69.64;101050.72;5081677;28;20028;-39
2023/12/30 02:39:42;;;;;;;4.60;1.73;;;;;;;17.85;69.31;101050.16;5080349;28;20031;-38
2023/12/30 02:42:07;;;;;;;5.50;1.70;;;;;;;17.85;69.07;101041.13;5082816;28;20350;-38
2023/12/30 02:44:32;;;;;;;5.05;1.63;;;;;;;17.81;69.44;101044.38;5087757;28;20024;-36
2023/12/30 02:46:58;;;;;;;6.15;1.88;;;;;;;17.83;68.85;101046.03;5080614;28;20161;-37
2023/12/30 02:49:23;;;;;;;7.65;1.73;;;;;;;17.81;69.02;101040.84;5093719;28;20038;-37
2023/12/30 02:51:49;;;;;;;4.75;1.70;;;;;;;17.79;68.88;101045.75;5079473;28;20469;-36
2023/12/30 02:54:14;;;;;;;5.57;1.75;;;;;;;17.79;69.17;101049.34;5078580;28;20040;-37
2023/12/30 02:56:39;;;;;;;6.57;1.95;;;;;;;17.76;69.04;101040.84;5064733;28;20028;-37
2023/12/30 02:59:05;;;;;;;8.40;1.75;;;;;;;17.76;69.44;101046.31;5076479;28;20440;-38
2023/12/30 03:01:31;;;;;;;6.82;1.55;;;;;;;17.75;68.95;101045.47;5080955;28;20110;-36
2023/12/30 03:03:58;;;;;;;6.93;1.90;;;;;;;17.74;69.26;101048.50;5079111;28;20397;-38
2023/12/30 03:06:24;;;;;;;7.18;1.77;;;;;;;17.72;69.04;101046.03;5082771;28;20058;-37
2023/12/30 03:08:51;;;;;;;6.47;1.50;;;;;;;17.71;69.31;101052.59;5079382;28;20488;-36
2023/12/30 03:11:17;;;;;;;6.82;2.00;;;;;;;17.70;69.33;101055.63;5081159;28;20035;-38
2023/12/30 03:13:42;;;;;;;4.40;1.95;;;;;;;17.68;69.59;101046.84;5077926;28;20404;-38
2023/12/30 03:16:11;;;;;;;9.43;2.05;;;;;;;17.67;69.45;101056.97;5077949;28;20031;-38
2023/12/30 03:18:38;;;;;;;6.70;1.40;;;;;;;17.65;69.41;101059.16;5080378;28;20028;-38
2023/12/30 03:21:07;;;;;;;4.43;1.50;;;;;;;17.65;69.32;101061.91;5078723;28;20107;-39
2023/12/30 03:23:36;;;;;;;5.88;1.70;;;;;;;17.64;69.17;101058.34;5072402;28;20036;-39
2023/12/30 03:26:02;;;;;;;6.28;1.85;;;;;;;17.64;69.14;101057.50;5078989;28;20477;-38
2023/12/30 03:28:27;;;;;;;7.00;1.83;;;;;;;17.63;69.31;101069.56;5079998;28;20419;-39
2023/12/30 03:30:53;;;;;;;4.28;1.73;;;;;;;17.63;69.24;101067.66;5080193;28;20481;-38
2023/12/30 03:33:18;;;;;;;4.38;1.80;;;;;;;17.62;69.49;101059.69;5082303;28;20032;-36
2023/12/30 03:35:44;;;;;;;6.00;1.80;;;;;;;17.62;69.15;101065.16;5079388;28;20019;-37
2023/12/30 03:38:09;;;;;;;3.83;1.65;;;;;;;17.59;69.15;101055.56;5086689;28;20016;-36
2023/12/30 03:40:35;;;;;;;6.95;1.77;;;;;;;17.61;69.21;101060.81;5078253;28;20024;-37
2023/12/30 03:43:01;;;;;;;6.18;1.92;;;;;;;17.60;69.19;101059.16;5078713;28;20020;-37
2023/12/30 03:45:26;;;;;;;7.00;1.85;;;;;;;17.59;68.93;101057.50;5084262;28;20039;-36
2023/12/30 03:47:52;;;;;;;6.68;1.77;;;;;;;17.57;69.31;101052.28;5082130;28;20031;-37
2023/12/30 03:50:18;;;;;;;6.93;2.28;;;;;;;17.56;68.89;101056.13;5078157;28;20309;-37
2023/12/30 03:52:43;;;;;;;4.63;1.70;;;;;;;17.57;69.41;101056.94;5086373;28;20077;-36
2023/12/30 03:55:09;;;;;;;6.03;1.63;;;;;;;17.55;69.18;101057.22;5083230;28;20062;-38
2023/12/30 03:57:34;;;;;;;6.72;1.90;;;;;;;17.55;69.12;101059.94;5083769;28;20500;-38
2023/12/30 04:00:00;;;;;;;5.85;2.10;;;;;;;17.56;68.80;101060.75;5084086;28;20052;-38
2023/12/30 04:02:26;;;;;;;3.55;1.63;;;;;;;17.55;69.12;101062.69;5067794;28;20446;-38
2023/12/30 04:04:51;;;;;;;5.07;1.80;;;;;;;17.54;68.94;101057.47;5083637;28;20038;-38
2023/12/30 04:07:16;;;;;;;4.28;1.58;;;;;;;17.53;69.18;101061.31;5084668;28;20131;-38
2023/12/30 04:09:42;;;;;;;6.38;2.03;;;;;;;17.52;69.33;101065.94;5086675;28;20039;-39
2023/12/30 04:12:07;;;;;;;5.82;1.80;;;;;;;17.52;68.93;101051.44;5083411;28;20082;-38
2023/12/30 04:14:33;;;;;;;5.30;1.95;;;;;;;17.52;68.48;101057.72;5082152;28;20031;-36
2023/12/30 04:16:58;;;;;;;5.65;1.85;;;;;;;17.52;68.40;101060.47;5085708;28;20016;-36
2023/12/30 04:19:24;;;;;;;7.45;2.33;;;;;;;17.53;68.29;101066.78;5085075;28;20428;-37
2023/12/30 04:21:50;;;;;;;5.25;1.90;;;;;;;17.51;68.79;101058.84;5079808;28;20024;-37
2023/12/30 04:24:15;;;;;;;6.18;2.17;;;;;;;17.51;68.04;101063.50;5084884;28;20034;-37
2023/12/30 04:26:43;;;;;;;6.00;1.92;;;;;;;17.48;68.21;101052.00;5084991;28;20024;-39
2023/12/30 04:29:09;;;;;;;5.88;1.90;;;;;;;17.47;67.95;101058.56;5085446;28;20442;-37
2023/12/30 04:31:34;;;;;;;5.00;1.50;;;;;;;17.46;68.28;101067.03;5084020;28;20341;-37
2023/12/30 04:33:59;;;;;;;6.13;1.60;;;;;;;17.43;68.75;101062.91;5084718;28;20202;-37
2023/12/30 04:36:25;;;;;;;4.25;1.50;;;;;;;17.43;68.57;101067.56;5081054;28;20027;-37
2023/12/30 04:38:50;;;;;;;3.05;1.50;;;;;;;17.39;69.10;101067.28;5082626;28;20488;-38
2023/12/30 04:41:15;;;;;;;5.63;1.88;;;;;;;17.41;68.98;101078.81;5082960;28;20020;-36
2023/12/30 04:43:41;;;;;;;5.45;1.60;;;;;;;17.41;68.60;101075.22;5082193;28;20039;-36
2023/12/30 04:46:06;;;;;;;6.70;1.90;;;;;;;17.40;68.53;101079.91;5084001;28;20032;-36
2023/12/30 04:48:32;;;;;;;7.72;1.80;;;;;;;17.40;68.75;101079.06;5086303;28;20032;-36
2023/12/30 04:50:57;;;;;;;5.38;1.80;;;;;;;17.37;68.59;101074.94;5066078;28;20039;-37
2023/12/30 04:53:23;;;;;;;4.80;1.50;;;;;;;17.39;68.41;101080.16;5087293;28;20044;-37
2023/12/30 04:55:48;;;;;;;3.75;1.63;;;;;;;17.36;68.11;101070.53;5081622;28;20028;-37
2023/12/30 04:58:14;;;;;;;6.38;1.90;;;;;;;17.34;68.62;101078.22;5083645;28;20024;-37
2023/12/30 05:00:39;;;;;;;4.07;1.50;;;;;;;17.36;68.35;101091.66;5081713;28;20055;-36
2023/12/30 05:03:05;;;;;;;6.10;1.83;;;;;;;17.34;68.23;101086.44;5082964;28;20114;-36
2023/12/30 05:05:30;;;;;;;4.53;1.67;;;;;;;17.34;68.33;101086.44;5082610;28;20478;-36
2023/12/30 05:07:55;;;;;;;4.60;1.70;;;;;;;17.32;68.25;101083.13;5089651;28;20093;-37
2023/12/30 05:10:21;;;;;;;8.18;2.00;;;;;;;17.32;68.42;101085.88;5079949;28;20024;-36
2023/12/30 05:12:46;;;;;;;11.32;1.98;;;;;;;17.30;68.38;101088.03;5082511;28;20443;-36
2023/12/30 05:15:14;;;;;;;4.78;1.60;;;;;;;17.31;68.48;101095.19;5084234;28;20020;-36
2023/12/30 05:17:40;;;;;;;4.72;1.60;;;;;;;17.30;68.93;101099.84;5085120;28;20027;-36
2023/12/30 05:20:08;;;;;;;6.60;1.73;;;;;;;17.30;68.61;101099.00;5081040;28;20031;-36
2023/12/30 05:22:34;;;;;;;3.80;1.40;;;;;;;17.29;68.61;101103.66;5080435;28;20024;-37
2023/12/30 05:25:00;;;;;;;4.22;1.35;;;;;;;17.30;68.51;101105.31;5081004;28;20028;-38
2023/12/30 05:27:25;;;;;;;5.28;1.50;;;;;;;17.31;68.60;101111.63;5086630;28;20235;-37
2023/12/30 05:29:50;;;;;;;6.57;1.73;;;;;;;17.35;69.13;101109.16;5080748;28;20024;-37
2023/12/30 05:32:16;;;;;;;4.50;1.40;;;;;;;17.40;68.82;101110.03;5079548;28;20035;-38
2023/12/30 05:34:41;;;;;;;5.85;1.63;;;;;;;17.46;68.88;101114.44;5082711;28;20464;-38
2023/12/30 05:37:07;;;;;;;4.75;1.70;;;;;;;17.55;68.80;101120.25;5080524;28;20408;-38
2023/12/30 05:39:33;;;;;;;3.67;1.58;;;;;;;17.63;68.63;101113.41;5084183;28;20034;-37
2023/12/30 05:41:58;;;;;;;5.10;1.63;;;;;;;17.72;68.79;101117.31;5082734;28;20093;-38
2023/12/30 05:44:24;;;;;;;4.47;1.70;;;;;;;17.80;68.79;101122.28;5081149;28;20423;-38
2023/12/30 05:46:51;;;;;;;4.53;1.50;;;;;;;17.88;68.56;101123.66;5076667;28;20120;-38
2023/12/30 05:49:16;;;;;;;3.42;1.42;;;;;;;17.99;68.52;101124.56;5084335;28;20062;-37
2023/12/30 05:51:42;;;;;;;3.65;1.40;;;;;;;18.08;68.33;101124.84;5080220;28;20571;-38
2023/12/30 05:54:10;;;;;;;3.17;1.30;;;;;;;18.18;67.97;101121.31;5080285;28;20024;-39
2023/12/30 05:56:35;;;;;;;5.50;1.73;;;;;;;18.27;67.99;101128.72;5079807;28;20039;-37
2023/12/30 05:59:00;;;;;;;5.03;1.70;;;;;;;18.36;67.86;101126.28;5083095;28;20027;-39
2023/12/30 06:01:26;;;;;;;6.35;1.50;;;;;;;18.46;67.57;101130.13;5080491;28;20288;-39
2023/12/30 06:03:52;;;;;;;4.43;1.52;;;;;;;18.54;67.36;101127.66;5083366;28;20032;-39
2023/12/30 06:06:17;;;;;;;6.25;1.60;;;;;;;18.63;67.28;101135.38;5081277;28;20027;-38
2023/12/30 06:08:42;;;;;;;4.13;1.65;;;;;;;18.72;67.12;101137.28;5082668;28;20042;-38
2023/12/30 06:11:08;;;;;;;2.90;1.60;;;;;;;18.81;66.99;101139.47;5060953;28;20123;-38
2023/12/30 06:13:34;;;;;;;5.25;1.63;;;;;;;18.86;66.91;101137.56;5084559;28;20052;-38
2023/12/30 06:16:00;;;;;;;3.75;1.52;;;;;;;18.90;66.76;101149.63;5077359;28;20428;-37
2023/12/30 06:18:30;;;;;;;4.07;1.70;;;;;;;18.92;66.52;101144.72;5083502;28;20032;-37
2023/12/30 06:20:58;;;;;;;4.68;1.60;;;;;;;18.94;66.36;101146.38;5084264;28;20032;-36
2023/12/30 06:23:23;;;;;;;4.20;1.70;;;;;;;18.94;66.51;101140.88;5091495;28;20016;-38
2023/12/30 06:25:49;;;;;;;4.95;1.45;;;;;;;18.91;66.05;101143.06;5080828;28;20020;-38
2023/12/30 06:28:14;;;;;;;6.65;1.90;;;;;;;18.91;66.19;101147.75;5079831;28;20024;-38
2023/12/30 06:30:40;;;;;;;4.15;1.60;;;;;;;18.90;66.37;101143.31;5078237;28;20025;-38
2023/12/30 06:33:08;;;;;;;5.35;1.58;;;;;;;18.87;66.28;101135.63;5081184;28;20027;-38
2023/12/30 06:35:36;;;;;;;4.47;1.50;;;;;;;18.85;66.11;101144.13;5081461;28;20081;-38
2023/12/30 06:38:02;;;;;;;5.40;1.40;;;;;;;18.86;66.25;101139.47;5079162;28;20130;-38
2023/12/30 06:40:27;;;;;;;4.88;1.45;;;;;;;18.84;66.35;101142.50;5078821;28;20134;-38
2023/12/30 06:42:53;;;;;;;4.95;1.60;;;;;;;18.83;65.91;101137.28;5081016;28;20437;-38
2023/12/30 06:45:18;;;;;;;3.88;1.70;;;;;;;18.82;66.02;101144.72;5079195;28;20024;-37
2023/12/30 06:47:43;;;;;;;4.32;1.35;;;;;;;18.81;66.17;101136.72;5081131;28;20040;-37
2023/12/30 06:50:12;;;;;;;3.42;1.40;;;;;;;18.79;66.11;101136.19;5080918;28;20024;-37
2023/12/30 06:52:37;;;;;;;4.18;1.60;;;;;;;18.77;66.02;101129.06;5086789;28;20035;-37
2023/12/30 06:55:03;;;;;;;7.22;1.58;;;;;;;18.74;65.90;101140.56;5076589;28;20098;-37
2023/12/30 06:57:28;;;;;;;4.25;1.63;;;;;;;18.73;66.21;101124.38;5081593;28;20574;-37
2023/12/30 06:59:55;;;;;;;4.80;1.50;;;;;;;18.71;65.93;101124.66;5078130;28;20138;-37
2023/12/30 07:02:21;;;;;;;4.45;1.48;;;;;;;18.68;66.01;101124.38;5079872;28;20078;-37
2023/12/30 07:04:46;;;;;;;6.45;2.00;;;;;;;18.66;66.16;101124.63;5078073;28;20032;-38
2023/12/30 07:07:12;;;;;;;4.97;1.50;;;;;;;18.64;66.09;101129.59;5076802;28;20224;-38
2023/12/30 07:09:38;;;;;;;3.67;1.45;;;;;;;18.63;66.09;101121.66;5077063;28;20023;-38
2023/12/30 07:12:04;;;;;;;3.53;1.40;;;;;;;18.60;66.12;101134.81;5081458;28;20036;-38
2023/12/30 07:14:34;;;;;;;4.35;1.50;;;;;;;18.60;65.93;101139.47;5081278;28;20047;-39
2023/12/30 07:16:59;;;;;;;6.22;1.50;;;;;;;18.57;66.17;101140.03;5080547;28;20405;-38
2023/12/30 07:19:25;;;;;;;6.75;1.90;;;;;;;18.57;65.79;101145.50;5077301;28;20610;-38
2023/12/30 07:21:51;;;;;;;6.90;1.80;;;;;;;18.54;65.70;101151.53;5079983;28;20136;-38
2023/12/30 07:24:16;;;;;;;5.00;1.73;;;;;;;18.51;65.91;101146.59;5079009;28;20058;-39
2023/12/30 07:26:41;;;;;;;2.42;1.40;;;;;;;18.49;65.49;101152.38;5079161;28;20048;-38
2023/12/30 07:29:07;;;;;;;5.35;1.55;;;;;;;18.47;65.93;101148.22;5083822;28;20050;-38
2023/12/30 07:31:32;;;;;;;4.72;1.70;;;;;;;18.43;65.84;101162.50;5085823;28;20028;-39
2023/12/30 07:33:57;;;;;;;6.72;1.75;;;;;;;18.42;65.74;101160.84;5079448;28;20056;-39
2023/12/30 07:36:24;;;;;;;6.50;1.38;;;;;;;18.39;65.93;101163.31;5084144;28;20087;-37
2023/12/30 07:38:49;;;;;;;3.80;1.50;;;;;;;18.37;65.69;101166.34;5082929;28;20126;-38
2023/12/30 07:41:15;;;;;;;3.65;1.50;;;;;;;18.34;65.59;101164.13;5066917;28;20492;-37
2023/12/30 07:43:40;;;;;;;5.90;1.80;;;;;;;18.31;65.68;101175.66;5085831;28;20024;-39
2023/12/30 07:46:06;;;;;;;6.07;1.70;;;;;;;18.29;65.87;101183.31;5079664;28;20909;-36
2023/12/30 07:48:31;;;;;;;5.70;2.00;;;;;;;18.26;65.71;101183.88;5080831;28;20028;-37
2023/12/30 07:50:57;;;;;;;4.40;1.50;;;;;;;18.24;65.73;101189.63;5083842;28;20032;-37
2023/12/30 07:53:22;;;;;;;4.82;1.63;;;;;;;18.21;65.77;101179.19;5080406;28;20464;-37
2023/12/30 07:55:48;;;;;;;4.03;1.50;;;;;;;18.19;65.68;101192.34;5083136;28;20051;-36
2023/12/30 07:58:13;;;;;;;3.72;1.27;;;;;;;18.18;65.59;101181.66;5089557;28;20029;-37
2023/12/30 08:00:39;;;;;;;7.72;2.05;;;;;;;18.17;65.52;101183.56;5084387;28;20531;-36
2023/12/30 08:03:04;;;;;;;6.13;1.95;;;;;;;18.17;65.55;101186.31;5084180;28;20058;-38
2023/12/30 08:05:29;;;;;;;4.85;1.58;;;;;;;18.16;65.80;101176.44;5078951;28;20028;-36
2023/12/30 08:07:55;;;;;;;3.17;1.55;;;;;;;18.17;66.05;101186.31;5083702;28;20031;-37
2023/12/30 08:10:20;;;;;;;4.45;1.65;;;;;;;18.17;66.03;101180.81;5082886;28;20027;-36
2023/12/30 08:12:46;;;;;;;9.00;1.63;;;;;;;18.18;66.14;101192.63;5083013;28;20043;-39
2023/12/30 08:15:11;;;;;;;5.78;1.60;;;;;;;18.16;65.92;101183.84;5085779;28;20020;-36
2023/12/30 08:17:36;;;;;;;6.63;1.85;;;;;;;18.16;66.21;101195.66;5092911;28;20051;-36
2023/12/30 08:20:03;;;;;;;5.82;1.92;;;;;;;18.16;66.27;101195.66;5083626;28;20024;-36
2023/12/30 08:22:28;;;;;;;7.22;1.88;;;;;;;18.15;66.36;101196.75;5083980;28;20078;-36
2023/12/30 08:24:54;;;;;;;3.60;1.50;;;;;;;18.13;66.13;101190.69;5081225;28;20498;-37
2023/12/30 08:27:19;;;;;;;7.32;1.80;;;;;;;18.14;66.36;101202.50;5085329;28;20035;-37
2023/12/30 08:29:45;;;;;;;5.88;1.80;;;;;;;18.12;66.29;101203.59;5081242;28;20567;-37
2023/12/30 08:32:10;;;;;;;4.20;1.92;;;;;;;18.11;66.17;101204.69;5082254;28;20028;-37
2023/12/30 08:34:35;;;;;;;4.35;1.80;;;;;;;18.10;66.22;101199.47;5080756;28;20095;-37
2023/12/30 08:37:08;;;;;;;7.35;1.90;;;;;;;18.09;66.48;101201.38;5082545;28;20380;-39
2023/12/30 08:39:33;;;;;;;5.40;1.67;;;;;;;18.08;66.10;101204.38;5078489;28;20047;-38
2023/12/30 08:41:59;;;;;;;4.75;1.70;;;;;;;18.06;66.35;101207.41;5083711;28;20024;-38
2023/12/30 08:44:26;;;;;;;4.88;1.50;;;;;;;18.04;66.23;101204.09;5081147;28;20059;-36
2023/12/30 08:46:52;;;;;;;5.53;1.83;;;;;;;18.02;66.45;101209.03;5084334;28;20484;-36
2023/12/30 08:49:17;;;;;;;4.50;1.73;;;;;;;18.02;66.37;101213.69;5080304;28;20085;-38
2023/12/30 08:51:43;;;;;;;5.40;1.70;;;;;;;17.98;66.56;101221.63;5089373;28;20040;-37
2023/12/30 08:54:08;;;;;;;5.20;1.77;;;;;;;17.98;66.13;101221.63;5084692;28;20127;-37
2023/12/30 08:56:34;;;;;;;6.15;1.88;;;;;;;17.96;66.28;101223.81;5083341;28;20036;-38
2023/12/30 08:59:00;;;;;;;5.85;1.60;;;;;;;17.95;66.07;101222.16;5081255;28;20036;-38
2023/12/30 09:01:25;;;;;;;4.82;1.63;;;;;;;17.94;65.94;101225.97;5081193;28;20609;-38
2023/12/30 09:03:51;;;;;;;5.28;1.70;;;;;;;17.92;66.09;101219.94;5083311;28;20032;-38
2023/12/30 09:06:16;;;;;;;6.60;1.90;;;;;;;17.90;66.14;101219.34;5080312;28;20452;-38
2023/12/30 09:08:41;;;;;;;5.80;1.77;;;;;;;17.89;66.16;101215.81;5085717;28;20135;-38
2023/12/30 09:11:20;;;;;;;8.95;1.90;;;;;;;17.86;66.17;101218.25;5079871;28;20097;-38
2023/12/30 09:13:46;;;;;;;5.82;1.88;;;;;;;17.84;66.40;101217.69;5075589;28;20062;-38
2023/12/30 09:16:11;;;;;;;5.38;1.80;;;;;;;17.82;66.69;101226.19;5080568;28;20460;-36
2023/12/30 09:18:37;;;;;;;5.15;1.70;;;;;;;17.80;66.75;101225.63;5083965;28;20054;-37
2023/12/30 09:21:02;;;;;;;6.25;1.92;;;;;;;17.79;66.83;101240.41;5083435;28;20032;-37
2023/12/30 09:23:27;;;;;;;8.52;1.80;;;;;;;17.79;67.26;101234.94;5079723;28;20038;-38
2023/12/30 09:25:53;;;;;;;6.32;1.88;;;;;;;17.81;67.03;101239.06;5081923;28;20054;-37
2023/12/30 09:28:18;;;;;;;8.68;2.00;;;;;;;17.86;67.20;101240.19;5081945;28;20619;-37
2023/12/30 09:30:43;;;;;;;5.40;1.77;;;;;;;17.92;67.14;101230.91;5082511;28;20028;-38
2023/12/30 09:33:09;;;;;;;6.57;1.90;;;;;;;17.98;67.41;101232.59;5080452;28;20063;-38
2023/12/30 09:35:34;;;;;;;5.82;2.13;;;;;;;18.03;67.36;101234.53;5082491;28;20016;-38
2023/12/30 09:38:00;;;;;;;5.95;1.85;;;;;;;18.10;67.16;101244.16;5081447;28;20046;-38
2023/12/30 09:40:27;;;;;;;5.35;2.10;;;;;;;18.17;66.93;101243.09;5077976;28;20025;-38
2023/12/30 09:42:53;;;;;;;5.82;1.88;;;;;;;18.24;67.14;101249.97;5079171;28;20023;-38
2023/12/30 09:45:20;;;;;;;5.30;1.70;;;;;;;18.32;66.81;101250.56;5112684;27;20127;-38
2023/12/30 09:47:47;;;;;;;7.53;2.58;;;;;;;18.40;66.59;101250.03;5078438;28;20577;-39
2023/12/30 09:50:12;;;;;;;7.30;2.13;;;;;;;18.49;66.83;101258.56;5079799;28;20358;-39
2023/12/30 09:52:38;;;;;;;5.20;2.00;;;;;;;18.57;66.68;101258.06;5081684;28;20393;-39
2023/12/30 09:55:04;;;;;;;6.47;2.15;;;;;;;18.66;66.62;101255.59;5081292;28;20067;-39
2023/12/30 09:57:29;;;;;;;12.85;2.47;;;;;;;18.77;66.67;101260.00;5076331;28;21040;-40
2023/12/30 09:59:55;;;;;;;10.68;2.15;;;;;;;18.87;67.08;101270.19;5076691;28;20037;-40
2023/12/30 10:02:20;;;;;;;7.78;2.58;;;;;;;18.98;67.02;101271.91;5077509;28;20136;-39
2023/12/30 10:04:49;;;;;;;5.60;1.70;;;;;;;19.08;67.12;101271.91;5081020;28;20047;-39
2023/12/30 10:07:15;;;;;;;7.70;2.60;;;;;;;19.17;67.13;101274.09;5080463;28;20366;-38
2023/12/30 10:09:41;;;;;;;9.50;2.47;;;;;;;19.24;67.32;101272.72;5083697;28;20036;-39
2023/12/30 10:12:08;;;;;;;5.15;1.75;;;;;;;19.31;66.97;101271.63;5081885;28;20224;-39
2023/12/30 10:14:33;;;;;;;8.30;2.28;;;;;;;19.35;67.31;101270.81;5087656;28;20035;-38
2023/12/30 10:17:01;;;;;;;7.78;2.20;;;;;;;19.39;67.22;101268.34;5080064;28;20035;-38
2023/12/30 10:19:26;;;;;;;7.95;2.30;;;;;;;19.43;66.46;101261.16;5079366;28;20028;-36
2023/12/30 10:21:52;;;;;;;7.55;2.05;;;;;;;19.46;66.26;101255.13;5080096;28;20168;-36
2023/12/30 10:24:17;;;;;;;6.32;2.55;;;;;;;19.51;66.15;101251.53;5084117;28;20071;-39
2023/12/30 10:26:43;;;;;;;6.80;2.42;;;;;;;19.53;66.28;101250.19;5060252;28;20019;-38
2023/12/30 10:29:10;;;;;;;7.57;2.10;;;;;;;19.59;66.31;101252.91;5086378;28;20120;-39
2023/12/30 10:31:35;;;;;;;5.78;2.15;;;;;;;19.59;66.20;101245.47;5099004;27;20401;-39
2023/12/30 10:34:01;;;;;;;5.35;1.70;;;;;;;19.62;65.87;101244.94;5082168;28;20051;-39
2023/12/30 10:36:27;;;;;;;8.15;1.92;;;;;;;19.63;65.60;101243.84;5082684;28;20682;-40
2023/12/30 10:38:54;;;;;;;5.80;2.17;;;;;;;19.66;65.88;101236.97;5084940;28;20047;-39
2023/12/30 10:41:20;;;;;;;6.20;2.20;;;;;;;19.66;65.67;101225.97;5081882;28;20484;-38
2023/12/30 10:43:45;;;;;;;5.97;2.00;;;;;;;19.65;65.88;101219.63;5078944;28;20119;-38
2023/12/30 10:46:12;;;;;;;7.90;2.10;;;;;;;19.67;65.68;101219.34;5082438;28;20594;-40
2023/12/30 10:48:44;;;;;;;6.80;2.20;;;;;;;19.65;65.78;101222.38;5081105;28;20078;-40
2023/12/30 10:51:11;;;;;;;9.00;2.47;;;;;;;19.66;65.44;101229.53;5077447;28;20043;-39
2023/12/30 10:53:44;;;;;;;6.40;2.38;;;;;;;19.66;65.50;101221.28;5074468;28;20508;-39
2023/12/30 10:56:10;;;;;;;5.38;2.20;;;;;;;19.66;65.26;101214.97;5080783;28;20039;-44
2023/12/30 10:58:36;;;;;;;4.32;1.80;;;;;;;19.65;65.27;101219.63;5063281;28;20032;-40
2023/12/30 11:01:03;;;;;;;7.45;2.55;;;;;;;19.67;65.63;101219.34;5077729;28;20235;-41
2023/12/30 11:03:31;;;;;;;8.15;2.20;;;;;;;19.66;65.72;101212.22;5070275;28;20062;-38
2023/12/30 11:06:35;;;;;;;6.55;2.30;;;;;;;19.65;65.23;101213.31;5076141;28;20154;-39
2023/12/30 11:09:11;;;;;;;16.70;2.88;;;;;;;19.64;65.45;101209.72;5077301;28;20035;-40
2023/12/30 11:11:43;;;;;;;11.80;2.33;;;;;;;19.64;65.64;101195.16;5082162;28;20039;-40
2023/12/30 11:14:14;;;;;;;9.07;2.33;;;;;;;19.59;65.29;101196.00;5078823;28;20359;-40
2023/12/30 11:16:40;;;;;;;6.75;2.35;;;;;;;19.56;65.28;101197.38;5112607;27;20036;-40
2023/12/30 11:19:05;;;;;;;10.10;2.47;;;;;;;19.52;65.65;101201.78;5079455;28;20484;-35